sensor_id;sensor_type;location;lat;lon;timestamp;P1;durP1;ratioP1;P2;durP2;ratioP2
10497;SDS011;5296;51.060;13.750;2023-11-19T00:02:48;7.68;;;6.88;;
10497;SDS011;5296;51.060;13.750;2023-11-19T00:07:49;8.02;;;6.82;;
10497;SDS011;5296;51.060;13.750;2023-11-19T00:12:51;7.70;;;6.68;;
10497;SDS011;5296;51.060;13.750;2023-11-19T00:17:53;7.97;;;6.63;;
10497;SDS011;5296;51.060;13.750;2023-11-19T00:22:55;8.35;;;7.43;;
10497;SDS011;5296;51.060;13.750;2023-11-19T00:27:57;9.00;;;7.72;;
10497;SDS011;5296;51.060;13.750;2023-11-19T00:32:59;8.73;;;7.32;;
10497;SDS011;5296;51.060;13.750;2023-11-19T00:38:00;8.88;;;7.53;;
10497;SDS011;5296;51.060;13.750;2023-11-19T00:43:02;9.18;;;7.43;;
10497;SDS011;5296;51.060;13.750;2023-11-19T00:48:04;7.95;;;7.15;;
10497;SDS011;5296;51.060;13.750;2023-11-19T00:53:07;8.98;;;7.13;;
10497;SDS011;5296;51.060;13.750;2023-11-19T00:58:09;8.20;;;6.47;;
10497;SDS011;5296;51.060;13.750;2023-11-19T01:03:11;6.90;;;6.03;;
10497;SDS011;5296;51.060;13.750;2023-11-19T01:08:13;7.75;;;6.95;;
10497;SDS011;5296;51.060;13.750;2023-11-19T01:13:15;8.55;;;6.70;;
10497;SDS011;5296;51.060;13.750;2023-11-19T01:18:16;6.32;;;5.60;;
10497;SDS011;5296;51.060;13.750;2023-11-19T01:23:18;7.57;;;6.80;;
10497;SDS011;5296;51.060;13.750;2023-11-19T01:28:20;6.35;;;5.78;;
10497;SDS011;5296;51.060;13.750;2023-11-19T01:33:21;7.20;;;6.07;;
10497;SDS011;5296;51.060;13.750;2023-11-19T01:38:23;5.95;;;5.32;;
10497;SDS011;5296;51.060;13.750;2023-11-19T01:43:34;6.00;;;5.35;;
10497;SDS011;5296;51.060;13.750;2023-11-19T01:48:38;5.78;;;5.03;;
10497;SDS011;5296;51.060;13.750;2023-11-19T01:53:42;5.50;;;4.90;;
10497;SDS011;5296;51.060;13.750;2023-11-19T01:58:45;5.50;;;4.70;;
10497;SDS011;5296;51.060;13.750;2023-11-19T02:03:47;4.90;;;4.22;;
10497;SDS011;5296;51.060;13.750;2023-11-19T02:08:49;4.57;;;4.18;;
10497;SDS011;5296;51.060;13.750;2023-11-19T02:13:50;4.15;;;3.75;;
10497;SDS011;5296;51.060;13.750;2023-11-19T02:18:52;3.55;;;3.25;;
10497;SDS011;5296;51.060;13.750;2023-11-19T02:23:54;3.38;;;3.08;;
10497;SDS011;5296;51.060;13.750;2023-11-19T02:29:08;3.50;;;3.10;;
10497;SDS011;5296;51.060;13.750;2023-11-19T02:34:10;3.42;;;3.13;;
10497;SDS011;5296;51.060;13.750;2023-11-19T02:39:13;2.95;;;2.70;;
10497;SDS011;5296;51.060;13.750;2023-11-19T02:44:16;2.45;;;2.25;;
10497;SDS011;5296;51.060;13.750;2023-11-19T02:49:18;2.58;;;2.38;;
10497;SDS011;5296;51.060;13.750;2023-11-19T02:54:20;2.45;;;2.25;;
10497;SDS011;5296;51.060;13.750;2023-11-19T02:59:28;2.63;;;1.90;;
10497;SDS011;5296;51.060;13.750;2023-11-19T03:04:40;2.17;;;1.98;;
10497;SDS011;5296;51.060;13.750;2023-11-19T03:09:41;4.05;;;2.30;;
10497;SDS011;5296;51.060;13.750;2023-11-19T03:14:45;2.42;;;2.22;;
10497;SDS011;5296;51.060;13.750;2023-11-19T03:19:49;2.10;;;1.90;;
10497;SDS011;5296;51.060;13.750;2023-11-19T03:24:51;2.20;;;2.03;;
10497;SDS011;5296;51.060;13.750;2023-11-19T03:29:53;1.80;;;1.70;;
10497;SDS011;5296;51.060;13.750;2023-11-19T03:34:54;2.67;;;2.00;;
10497;SDS011;5296;51.060;13.750;2023-11-19T03:39:57;2.22;;;2.03;;
10497;SDS011;5296;51.060;13.750;2023-11-19T03:45:03;2.22;;;2.03;;
10497;SDS011;5296;51.060;13.750;2023-11-19T03:50:06;1.92;;;1.83;;
10497;SDS011;5296;51.060;13.750;2023-11-19T03:55:09;2.30;;;2.10;;
10497;SDS011;5296;51.060;13.750;2023-11-19T04:00:11;2.58;;;1.90;;
10497;SDS011;5296;51.060;13.750;2023-11-19T04:05:15;2.25;;;2.10;;
10497;SDS011;5296;51.060;13.750;2023-11-19T04:10:17;2.30;;;2.10;;
10497;SDS011;5296;51.060;13.750;2023-11-19T04:15:19;2.67;;;2.47;;
10497;SDS011;5296;51.060;13.750;2023-11-19T04:20:21;3.28;;;2.45;;
10497;SDS011;5296;51.060;13.750;2023-11-19T04:25:23;2.88;;;2.65;;
10497;SDS011;5296;51.060;13.750;2023-11-19T04:30:27;4.57;;;3.00;;
10497;SDS011;5296;51.060;13.750;2023-11-19T04:35:29;4.20;;;3.15;;
10497;SDS011;5296;51.060;13.750;2023-11-19T04:40:31;3.30;;;3.00;;
10497;SDS011;5296;51.060;13.750;2023-11-19T04:45:33;3.53;;;2.53;;
10497;SDS011;5296;51.060;13.750;2023-11-19T04:50:35;3.05;;;2.75;;
10497;SDS011;5296;51.060;13.750;2023-11-19T04:55:36;3.53;;;2.80;;
10497;SDS011;5296;51.060;13.750;2023-11-19T05:00:38;3.65;;;2.88;;
10497;SDS011;5296;51.060;13.750;2023-11-19T05:05:40;3.58;;;2.83;;
10497;SDS011;5296;51.060;13.750;2023-11-19T05:10:41;3.38;;;3.08;;
10497;SDS011;5296;51.060;13.750;2023-11-19T05:15:43;4.35;;;2.80;;
10497;SDS011;5296;51.060;13.750;2023-11-19T05:20:45;3.08;;;2.70;;
10497;SDS011;5296;51.060;13.750;2023-11-19T05:25:47;2.70;;;2.50;;
10497;SDS011;5296;51.060;13.750;2023-11-19T05:30:49;3.20;;;2.90;;
10497;SDS011;5296;51.060;13.750;2023-11-19T05:35:50;4.25;;;3.30;;
10497;SDS011;5296;51.060;13.750;2023-11-19T05:40:52;3.55;;;2.92;;
10497;SDS011;5296;51.060;13.750;2023-11-19T05:45:54;4.35;;;3.25;;
10497;SDS011;5296;51.060;13.750;2023-11-19T05:50:55;3.50;;;3.10;;
10497;SDS011;5296;51.060;13.750;2023-11-19T05:55:57;4.03;;;3.63;;
10497;SDS011;5296;51.060;13.750;2023-11-19T06:00:59;5.00;;;3.73;;
10497;SDS011;5296;51.060;13.750;2023-11-19T06:06:04;4.78;;;4.30;;
10497;SDS011;5296;51.060;13.750;2023-11-19T06:11:06;4.30;;;3.90;;
10497;SDS011;5296;51.060;13.750;2023-11-19T06:16:08;4.30;;;3.90;;
10497;SDS011;5296;51.060;13.750;2023-11-19T06:21:10;4.70;;;3.85;;
10497;SDS011;5296;51.060;13.750;2023-11-19T06:26:12;3.80;;;3.45;;
10497;SDS011;5296;51.060;13.750;2023-11-19T06:31:15;3.55;;;3.13;;
10497;SDS011;5296;51.060;13.750;2023-11-19T06:36:17;3.40;;;3.10;;
10497;SDS011;5296;51.060;13.750;2023-11-19T06:41:19;3.42;;;3.13;;
10497;SDS011;5296;51.060;13.750;2023-11-19T06:46:21;4.72;;;3.00;;
10497;SDS011;5296;51.060;13.750;2023-11-19T06:51:23;3.63;;;2.92;;
10497;SDS011;5296;51.060;13.750;2023-11-19T06:56:25;3.00;;;2.70;;
10497;SDS011;5296;51.060;13.750;2023-11-19T07:01:27;2.53;;;2.33;;
10497;SDS011;5296;51.060;13.750;2023-11-19T07:06:29;2.75;;;2.50;;
10497;SDS011;5296;51.060;13.750;2023-11-19T07:11:33;2.67;;;2.30;;
10497;SDS011;5296;51.060;13.750;2023-11-19T07:16:36;2.53;;;2.33;;
10497;SDS011;5296;51.060;13.750;2023-11-19T07:21:43;2.35;;;2.15;;
10497;SDS011;5296;51.060;13.750;2023-11-19T07:26:46;2.20;;;2.00;;
10497;SDS011;5296;51.060;13.750;2023-11-19T07:31:48;2.13;;;1.92;;
10497;SDS011;5296;51.060;13.750;2023-11-19T07:36:50;2.17;;;1.98;;
10497;SDS011;5296;51.060;13.750;2023-11-19T07:41:52;2.50;;;2.30;;
10497;SDS011;5296;51.060;13.750;2023-11-19T07:46:53;2.25;;;2.00;;
10497;SDS011;5296;51.060;13.750;2023-11-19T07:51:55;3.38;;;2.97;;
10497;SDS011;5296;51.060;13.750;2023-11-19T07:56:57;2.10;;;1.90;;
10497;SDS011;5296;51.060;13.750;2023-11-19T08:01:59;2.58;;;2.38;;
10497;SDS011;5296;51.060;13.750;2023-11-19T08:07:01;2.30;;;2.10;;
10497;SDS011;5296;51.060;13.750;2023-11-19T08:12:03;2.10;;;1.90;;
10497;SDS011;5296;51.060;13.750;2023-11-19T08:17:05;2.55;;;2.35;;
10497;SDS011;5296;51.060;13.750;2023-11-19T08:22:07;2.15;;;1.95;;
10497;SDS011;5296;51.060;13.750;2023-11-19T08:27:10;2.33;;;2.13;;
10497;SDS011;5296;51.060;13.750;2023-11-19T08:32:12;2.30;;;2.10;;
10497;SDS011;5296;51.060;13.750;2023-11-19T08:37:13;2.63;;;2.10;;
10497;SDS011;5296;51.060;13.750;2023-11-19T08:42:15;2.53;;;2.10;;
10497;SDS011;5296;51.060;13.750;2023-11-19T08:47:17;2.08;;;1.98;;
10497;SDS011;5296;51.060;13.750;2023-11-19T08:52:19;2.72;;;2.17;;
10497;SDS011;5296;51.060;13.750;2023-11-19T08:57:21;2.42;;;2.20;;
10497;SDS011;5296;51.060;13.750;2023-11-19T09:02:22;2.40;;;2.20;;
10497;SDS011;5296;51.060;13.750;2023-11-19T09:07:24;2.25;;;2.05;;
10497;SDS011;5296;51.060;13.750;2023-11-19T09:12:26;2.17;;;1.97;;
10497;SDS011;5296;51.060;13.750;2023-11-19T09:17:27;2.63;;;2.33;;
10497;SDS011;5296;51.060;13.750;2023-11-19T09:22:29;2.45;;;2.10;;
10497;SDS011;5296;51.060;13.750;2023-11-19T09:27:31;4.18;;;2.40;;
10497;SDS011;5296;51.060;13.750;2023-11-19T09:32:32;3.75;;;3.22;;
10497;SDS011;5296;51.060;13.750;2023-11-19T09:37:34;2.67;;;2.40;;
10497;SDS011;5296;51.060;13.750;2023-11-19T09:42:40;1.80;;;1.70;;
10497;SDS011;5296;51.060;13.750;2023-11-19T09:47:46;6.18;;;1.98;;
10497;SDS011;5296;51.060;13.750;2023-11-19T09:52:48;2.22;;;1.40;;
10497;SDS011;5296;51.060;13.750;2023-11-19T09:57:50;1.65;;;1.10;;
10497;SDS011;5296;51.060;13.750;2023-11-19T10:02:54;2.08;;;1.30;;
10497;SDS011;5296;51.060;13.750;2023-11-19T10:07:56;4.40;;;1.20;;
10497;SDS011;5296;51.060;13.750;2023-11-19T10:12:58;2.17;;;1.10;;
10497;SDS011;5296;51.060;13.750;2023-11-19T10:18:01;2.92;;;0.90;;
10497;SDS011;5296;51.060;13.750;2023-11-19T10:23:03;1.13;;;0.93;;
10497;SDS011;5296;51.060;13.750;2023-11-19T10:28:05;3.22;;;1.10;;
10497;SDS011;5296;51.060;13.750;2023-11-19T10:38:15;1.50;;;1.00;;
10497;SDS011;5296;51.060;13.750;2023-11-19T10:43:20;2.55;;;0.93;;
10497;SDS011;5296;51.060;13.750;2023-11-19T10:48:25;2.05;;;1.10;;
10497;SDS011;5296;51.060;13.750;2023-11-19T10:53:27;2.88;;;1.25;;
10497;SDS011;5296;51.060;13.750;2023-11-19T10:58:32;1.77;;;1.20;;
10497;SDS011;5296;51.060;13.750;2023-11-19T11:03:38;1.15;;;0.90;;
10497;SDS011;5296;51.060;13.750;2023-11-19T11:08:41;2.03;;;1.02;;
10497;SDS011;5296;51.060;13.750;2023-11-19T11:13:43;1.42;;;0.95;;
10497;SDS011;5296;51.060;13.750;2023-11-19T11:18:46;1.17;;;0.98;;
10497;SDS011;5296;51.060;13.750;2023-11-19T11:29:19;2.28;;;1.30;;
10497;SDS011;5296;51.060;13.750;2023-11-19T11:39:39;2.92;;;1.15;;
10497;SDS011;5296;51.060;13.750;2023-11-19T11:50:15;2.67;;;1.38;;
10497;SDS011;5296;51.060;13.750;2023-11-19T11:55:18;2.05;;;1.08;;
10497;SDS011;5296;51.060;13.750;2023-11-19T12:05:30;4.97;;;2.75;;
10497;SDS011;5296;51.060;13.750;2023-11-19T12:10:37;2.42;;;1.40;;
10497;SDS011;5296;51.060;13.750;2023-11-19T12:21:00;5.35;;;1.80;;
10497;SDS011;5296;51.060;13.750;2023-11-19T12:26:02;4.38;;;1.50;;
10497;SDS011;5296;51.060;13.750;2023-11-19T12:31:08;4.63;;;1.88;;
10497;SDS011;5296;51.060;13.750;2023-11-19T12:36:13;5.78;;;1.63;;
10497;SDS011;5296;51.060;13.750;2023-11-19T12:41:15;6.13;;;1.40;;
10497;SDS011;5296;51.060;13.750;2023-11-19T12:46:22;8.18;;;2.38;;
10497;SDS011;5296;51.060;13.750;2023-11-19T12:51:30;3.75;;;1.80;;
10497;SDS011;5296;51.060;13.750;2023-11-19T12:56:32;6.22;;;1.90;;
10497;SDS011;5296;51.060;13.750;2023-11-19T13:01:34;4.07;;;1.65;;
10497;SDS011;5296;51.060;13.750;2023-11-19T13:06:37;7.00;;;2.13;;
10497;SDS011;5296;51.060;13.750;2023-11-19T13:11:46;10.15;;;2.30;;
10497;SDS011;5296;51.060;13.750;2023-11-19T13:16:48;6.53;;;2.22;;
10497;SDS011;5296;51.060;13.750;2023-11-19T13:21:50;4.22;;;1.70;;
10497;SDS011;5296;51.060;13.750;2023-11-19T13:26:52;5.38;;;1.88;;
10497;SDS011;5296;51.060;13.750;2023-11-19T13:31:54;9.18;;;2.42;;
10497;SDS011;5296;51.060;13.750;2023-11-19T13:36:55;7.75;;;1.95;;
10497;SDS011;5296;51.060;13.750;2023-11-19T13:41:58;10.75;;;2.55;;
10497;SDS011;5296;51.060;13.750;2023-11-19T13:47:04;5.22;;;2.00;;
10497;SDS011;5296;51.060;13.750;2023-11-19T13:52:06;7.13;;;2.35;;
10497;SDS011;5296;51.060;13.750;2023-11-19T13:57:07;8.15;;;2.30;;
10497;SDS011;5296;51.060;13.750;2023-11-19T14:02:09;11.05;;;2.28;;
10497;SDS011;5296;51.060;13.750;2023-11-19T14:07:11;9.15;;;2.28;;
10497;SDS011;5296;51.060;13.750;2023-11-19T14:12:13;10.50;;;2.50;;
10497;SDS011;5296;51.060;13.750;2023-11-19T14:17:15;11.52;;;2.95;;
10497;SDS011;5296;51.060;13.750;2023-11-19T14:22:17;9.68;;;2.63;;
10497;SDS011;5296;51.060;13.750;2023-11-19T14:27:18;7.57;;;2.38;;
10497;SDS011;5296;51.060;13.750;2023-11-19T14:32:20;6.05;;;2.15;;
10497;SDS011;5296;51.060;13.750;2023-11-19T14:37:22;9.32;;;2.25;;
10497;SDS011;5296;51.060;13.750;2023-11-19T14:42:24;6.85;;;2.10;;
10497;SDS011;5296;51.060;13.750;2023-11-19T14:47:26;7.82;;;2.47;;
10497;SDS011;5296;51.060;13.750;2023-11-19T14:52:28;7.90;;;2.40;;
10497;SDS011;5296;51.060;13.750;2023-11-19T14:57:30;7.30;;;2.22;;
10497;SDS011;5296;51.060;13.750;2023-11-19T15:02:32;8.75;;;3.03;;
10497;SDS011;5296;51.060;13.750;2023-11-19T15:07:33;9.10;;;2.70;;
10497;SDS011;5296;51.060;13.750;2023-11-19T15:12:37;11.18;;;3.03;;
10497;SDS011;5296;51.060;13.750;2023-11-19T15:17:41;8.25;;;3.20;;
10497;SDS011;5296;51.060;13.750;2023-11-19T15:22:42;7.97;;;2.55;;
10497;SDS011;5296;51.060;13.750;2023-11-19T15:27:44;8.00;;;2.47;;
10497;SDS011;5296;51.060;13.750;2023-11-19T15:32:46;5.85;;;2.40;;
10497;SDS011;5296;51.060;13.750;2023-11-19T15:37:48;10.20;;;2.58;;
10497;SDS011;5296;51.060;13.750;2023-11-19T15:42:50;9.52;;;2.65;;
10497;SDS011;5296;51.060;13.750;2023-11-19T15:47:51;6.47;;;2.45;;
10497;SDS011;5296;51.060;13.750;2023-11-19T15:52:53;9.27;;;2.40;;
10497;SDS011;5296;51.060;13.750;2023-11-19T15:57:55;12.65;;;2.35;;
10497;SDS011;5296;51.060;13.750;2023-11-19T16:02:57;8.32;;;2.40;;
10497;SDS011;5296;51.060;13.750;2023-11-19T16:07:59;8.38;;;2.67;;
10497;SDS011;5296;51.060;13.750;2023-11-19T16:13:01;9.40;;;2.63;;
10497;SDS011;5296;51.060;13.750;2023-11-19T16:18:03;9.90;;;2.40;;
10497;SDS011;5296;51.060;13.750;2023-11-19T16:23:05;6.90;;;2.50;;
10497;SDS011;5296;51.060;13.750;2023-11-19T16:28:07;7.45;;;2.22;;
10497;SDS011;5296;51.060;13.750;2023-11-19T16:33:09;9.55;;;3.25;;
10497;SDS011;5296;51.060;13.750;2023-11-19T16:38:21;10.07;;;2.75;;
10497;SDS011;5296;51.060;13.750;2023-11-19T16:43:23;8.88;;;2.70;;
10497;SDS011;5296;51.060;13.750;2023-11-19T16:48:29;9.10;;;2.50;;
10497;SDS011;5296;51.060;13.750;2023-11-19T16:53:30;9.07;;;2.50;;
10497;SDS011;5296;51.060;13.750;2023-11-19T16:58:32;5.78;;;2.45;;
10497;SDS011;5296;51.060;13.750;2023-11-19T17:03:34;6.35;;;2.22;;
10497;SDS011;5296;51.060;13.750;2023-11-19T17:08:36;6.75;;;2.17;;
10497;SDS011;5296;51.060;13.750;2023-11-19T17:13:39;6.80;;;2.40;;
10497;SDS011;5296;51.060;13.750;2023-11-19T17:18:40;7.28;;;2.58;;
10497;SDS011;5296;51.060;13.750;2023-11-19T17:23:43;6.03;;;2.25;;
10497;SDS011;5296;51.060;13.750;2023-11-19T17:28:44;8.75;;;2.50;;
10497;SDS011;5296;51.060;13.750;2023-11-19T17:33:46;8.10;;;2.70;;
10497;SDS011;5296;51.060;13.750;2023-11-19T17:38:48;7.30;;;2.55;;
10497;SDS011;5296;51.060;13.750;2023-11-19T17:43:50;7.65;;;2.80;;
10497;SDS011;5296;51.060;13.750;2023-11-19T17:48:51;8.75;;;2.75;;
10497;SDS011;5296;51.060;13.750;2023-11-19T17:53:53;11.15;;;2.70;;
10497;SDS011;5296;51.060;13.750;2023-11-19T17:58:56;5.03;;;2.42;;
10497;SDS011;5296;51.060;13.750;2023-11-19T18:03:58;9.73;;;2.78;;
10497;SDS011;5296;51.060;13.750;2023-11-19T18:09:00;9.00;;;2.78;;
10497;SDS011;5296;51.060;13.750;2023-11-19T18:14:03;6.20;;;2.40;;
10497;SDS011;5296;51.060;13.750;2023-11-19T18:19:05;7.18;;;2.70;;
10497;SDS011;5296;51.060;13.750;2023-11-19T18:24:08;11.23;;;2.72;;
10497;SDS011;5296;51.060;13.750;2023-11-19T18:29:10;9.40;;;2.72;;
10497;SDS011;5296;51.060;13.750;2023-11-19T18:34:12;6.22;;;2.35;;
10497;SDS011;5296;51.060;13.750;2023-11-19T18:39:15;6.53;;;2.50;;
10497;SDS011;5296;51.060;13.750;2023-11-19T18:44:17;7.78;;;2.70;;
10497;SDS011;5296;51.060;13.750;2023-11-19T18:49:18;8.85;;;2.53;;
10497;SDS011;5296;51.060;13.750;2023-11-19T18:54:20;7.85;;;2.47;;
10497;SDS011;5296;51.060;13.750;2023-11-19T18:59:24;10.07;;;2.65;;
10497;SDS011;5296;51.060;13.750;2023-11-19T19:04:26;7.70;;;2.40;;
10497;SDS011;5296;51.060;13.750;2023-11-19T19:09:30;8.73;;;2.60;;
10497;SDS011;5296;51.060;13.750;2023-11-19T19:14:32;9.55;;;2.22;;
10497;SDS011;5296;51.060;13.750;2023-11-19T19:19:33;8.07;;;2.70;;
10497;SDS011;5296;51.060;13.750;2023-11-19T19:24:35;11.10;;;2.83;;
10497;SDS011;5296;51.060;13.750;2023-11-19T19:29:38;9.93;;;2.95;;
10497;SDS011;5296;51.060;13.750;2023-11-19T19:34:41;9.10;;;2.72;;
10497;SDS011;5296;51.060;13.750;2023-11-19T19:39:42;8.25;;;2.70;;
10497;SDS011;5296;51.060;13.750;2023-11-19T19:44:44;4.55;;;2.10;;
10497;SDS011;5296;51.060;13.750;2023-11-19T19:49:46;7.15;;;2.42;;
10497;SDS011;5296;51.060;13.750;2023-11-19T19:54:48;6.22;;;2.30;;
10497;SDS011;5296;51.060;13.750;2023-11-19T19:59:50;8.93;;;2.72;;
10497;SDS011;5296;51.060;13.750;2023-11-19T20:04:51;8.25;;;3.08;;
10497;SDS011;5296;51.060;13.750;2023-11-19T20:09:56;8.27;;;2.35;;
10497;SDS011;5296;51.060;13.750;2023-11-19T20:14:58;7.45;;;2.22;;
10497;SDS011;5296;51.060;13.750;2023-11-19T20:20:08;7.93;;;2.53;;
10497;SDS011;5296;51.060;13.750;2023-11-19T20:25:12;7.88;;;2.97;;
10497;SDS011;5296;51.060;13.750;2023-11-19T20:30:15;7.22;;;2.30;;
10497;SDS011;5296;51.060;13.750;2023-11-19T20:35:17;8.77;;;3.20;;
10497;SDS011;5296;51.060;13.750;2023-11-19T20:40:19;6.18;;;2.38;;
10497;SDS011;5296;51.060;13.750;2023-11-19T20:45:22;7.65;;;2.40;;
10497;SDS011;5296;51.060;13.750;2023-11-19T20:50:28;5.45;;;2.25;;
10497;SDS011;5296;51.060;13.750;2023-11-19T20:55:31;5.35;;;2.08;;
10497;SDS011;5296;51.060;13.750;2023-11-19T21:00:34;5.25;;;2.17;;
10497;SDS011;5296;51.060;13.750;2023-11-19T21:05:38;6.55;;;2.17;;
10497;SDS011;5296;51.060;13.750;2023-11-19T21:10:40;8.32;;;2.17;;
10497;SDS011;5296;51.060;13.750;2023-11-19T21:15:42;5.50;;;1.95;;
10497;SDS011;5296;51.060;13.750;2023-11-19T21:20:57;7.15;;;2.35;;
10497;SDS011;5296;51.060;13.750;2023-11-19T21:25:59;6.07;;;2.05;;
10497;SDS011;5296;51.060;13.750;2023-11-19T21:31:01;8.35;;;2.63;;
10497;SDS011;5296;51.060;13.750;2023-11-19T21:36:03;5.35;;;2.75;;
10497;SDS011;5296;51.060;13.750;2023-11-19T21:41:05;7.68;;;2.00;;
10497;SDS011;5296;51.060;13.750;2023-11-19T21:46:08;4.80;;;1.65;;
10497;SDS011;5296;51.060;13.750;2023-11-19T21:51:10;6.50;;;2.00;;
10497;SDS011;5296;51.060;13.750;2023-11-19T21:56:12;5.32;;;1.80;;
10497;SDS011;5296;51.060;13.750;2023-11-19T22:01:14;5.45;;;2.38;;
10497;SDS011;5296;51.060;13.750;2023-11-19T22:06:17;6.10;;;2.00;;
10497;SDS011;5296;51.060;13.750;2023-11-19T22:11:22;5.03;;;1.80;;
10497;SDS011;5296;51.060;13.750;2023-11-19T22:16:26;7.07;;;2.20;;
10497;SDS011;5296;51.060;13.750;2023-11-19T22:21:28;5.63;;;1.85;;
10497;SDS011;5296;51.060;13.750;2023-11-19T22:26:30;3.45;;;1.98;;
10497;SDS011;5296;51.060;13.750;2023-11-19T22:31:32;5.70;;;2.38;;
10497;SDS011;5296;51.060;13.750;2023-11-19T22:36:35;6.50;;;1.73;;
10497;SDS011;5296;51.060;13.750;2023-11-19T22:41:37;6.72;;;1.90;;
10497;SDS011;5296;51.060;13.750;2023-11-19T22:46:38;4.38;;;2.15;;
10497;SDS011;5296;51.060;13.750;2023-11-19T22:51:40;10.43;;;2.75;;
10497;SDS011;5296;51.060;13.750;2023-11-19T22:56:42;6.63;;;1.98;;
10497;SDS011;5296;51.060;13.750;2023-11-19T23:01:43;7.32;;;1.85;;
10497;SDS011;5296;51.060;13.750;2023-11-19T23:06:46;6.53;;;2.13;;
10497;SDS011;5296;51.060;13.750;2023-11-19T23:11:47;3.72;;;1.80;;
10497;SDS011;5296;51.060;13.750;2023-11-19T23:16:49;7.40;;;1.80;;
10497;SDS011;5296;51.060;13.750;2023-11-19T23:21:51;5.40;;;1.98;;
10497;SDS011;5296;51.060;13.750;2023-11-19T23:26:53;8.73;;;2.28;;
10497;SDS011;5296;51.060;13.750;2023-11-19T23:31:54;7.30;;;1.92;;
10497;SDS011;5296;51.060;13.750;2023-11-19T23:36:56;4.78;;;1.90;;
10497;SDS011;5296;51.060;13.750;2023-11-19T23:41:58;6.72;;;2.13;;
10497;SDS011;5296;51.060;13.750;2023-11-19T23:46:59;3.63;;;1.65;;
10497;SDS011;5296;51.060;13.750;2023-11-19T23:52:01;6.68;;;2.20;;
10497;SDS011;5296;51.060;13.750;2023-11-19T23:57:05;8.05;;;2.00;;
